createdAt,value
2018-06-25T00:00:01.380Z,4.60
2018-06-25T00:01:01.365Z,4.00
2018-06-25T00:02:01.355Z,3.80
2018-06-25T00:03:01.334Z,4.00
2018-06-25T00:04:01.316Z,4.80
2018-06-25T00:05:01.299Z,3.90
2018-06-25T00:06:01.282Z,4.10
2018-06-25T00:07:01.270Z,3.50
2018-06-25T00:08:01.251Z,3.80
2018-06-25T00:09:01.233Z,4.00
2018-06-25T00:10:01.218Z,3.70
2018-06-25T00:11:01.199Z,3.80
2018-06-25T00:12:01.184Z,3.70
2018-06-25T00:13:01.170Z,4.00
2018-06-25T00:14:01.158Z,4.00
2018-06-25T00:15:01.136Z,4.00
2018-06-25T00:16:01.116Z,4.00
2018-06-25T00:17:01.101Z,4.40
2018-06-25T00:18:01.091Z,3.90
2018-06-25T00:19:01.069Z,5.00
2018-06-25T00:20:01.059Z,4.60
2018-06-25T00:21:01.038Z,4.20
2018-06-25T00:22:01.019Z,4.70
2018-06-25T00:23:01.000Z,4.40
2018-06-25T00:24:00.985Z,5.10
2018-06-25T00:25:00.968Z,4.70
2018-06-25T00:26:00.952Z,4.70
2018-06-25T00:27:00.934Z,4.80
2018-06-25T00:28:00.918Z,4.90
2018-06-25T00:29:00.902Z,4.60
2018-06-25T00:30:00.886Z,5.10
2018-06-25T00:31:00.868Z,4.90
2018-06-25T00:32:00.856Z,5.60
2018-06-25T00:33:00.847Z,5.10
2018-06-25T00:34:00.819Z,4.90
2018-06-25T00:35:00.802Z,4.70
2018-06-25T00:36:00.785Z,4.70
2018-06-25T00:37:00.768Z,4.70
2018-06-25T00:38:00.755Z,5.10
2018-06-25T00:39:00.734Z,4.50
2018-06-25T00:40:00.720Z,4.80
2018-06-25T00:41:00.702Z,5.00
2018-06-25T00:42:00.686Z,4.60
2018-06-25T00:43:00.669Z,4.50
2018-06-25T00:44:00.657Z,4.40
2018-06-25T00:45:00.639Z,4.90
2018-06-25T00:46:00.617Z,4.40
2018-06-25T00:47:00.603Z,4.30
2018-06-25T00:48:00.584Z,4.60
2018-06-25T00:49:00.565Z,4.20
2018-06-25T00:50:00.551Z,4.30
2018-06-25T00:51:00.535Z,4.60
2018-06-25T00:52:00.519Z,3.90
2018-06-25T00:53:00.500Z,4.30
2018-06-25T00:54:00.489Z,3.80
2018-06-25T00:55:00.474Z,4.00
2018-06-25T00:56:00.451Z,4.40
2018-06-25T00:57:00.433Z,4.10
2018-06-25T00:58:00.416Z,4.10
2018-06-25T00:59:00.401Z,4.00
2018-06-25T01:00:00.381Z,3.60
2018-06-25T01:01:00.369Z,3.80
2018-06-25T01:02:00.349Z,3.60
2018-06-25T01:03:00.331Z,4.00
2018-06-25T01:04:00.315Z,4.20
2018-06-25T01:05:00.299Z,4.30
2018-06-25T01:06:00.290Z,3.90
2018-06-25T01:07:00.265Z,4.30
2018-06-25T01:08:00.246Z,4.30
2018-06-25T01:09:00.231Z,5.30
2018-06-25T01:10:00.213Z,5.90
2018-06-25T01:11:00.198Z,6.10
2018-06-25T01:12:00.178Z,6.70
2018-06-25T01:13:00.164Z,6.70
2018-06-25T01:14:00.146Z,7.60
2018-06-25T01:15:00.127Z,7.80
2018-06-25T01:16:00.113Z,9.70
2018-06-25T01:17:00.102Z,10.20
2018-06-25T01:18:00.078Z,10.40
2018-06-25T01:19:00.061Z,10.00
2018-06-25T01:20:00.044Z,9.60
2018-06-25T01:21:00.029Z,10.70
2018-06-25T01:22:00.013Z,9.90
2018-06-25T01:22:59.992Z,10.10
2018-06-25T01:23:59.975Z,9.50
2018-06-25T01:24:59.958Z,9.40
2018-06-25T01:25:59.941Z,10.20
2018-06-25T01:26:59.924Z,9.70
2018-06-25T01:27:59.906Z,9.20
2018-06-25T01:28:59.893Z,9.80
2018-06-25T01:29:59.872Z,9.10
2018-06-25T01:30:59.855Z,10.40
2018-06-25T01:31:59.839Z,10.20
2018-06-25T01:32:59.821Z,11.50
2018-06-25T01:33:59.813Z,10.30
2018-06-25T01:34:59.796Z,9.60
2018-06-25T01:35:59.772Z,10.60
2018-06-25T01:36:59.755Z,8.50
2018-06-25T01:37:59.738Z,9.20
2018-06-25T01:38:59.719Z,9.90
2018-06-25T01:39:59.702Z,9.00
2018-06-25T01:40:59.687Z,9.50
2018-06-25T01:41:59.670Z,9.90
2018-06-25T01:42:59.656Z,9.20
2018-06-25T01:43:59.636Z,10.30
2018-06-25T01:44:59.621Z,9.30
2018-06-25T01:45:59.603Z,9.30
2018-06-25T01:46:59.587Z,9.70
2018-06-25T01:47:59.572Z,9.40
2018-06-25T01:48:59.553Z,8.70
2018-06-25T01:49:59.543Z,9.00
2018-06-25T01:50:59.518Z,9.40
2018-06-25T01:51:59.501Z,10.10
2018-06-25T01:52:59.487Z,8.40
2018-06-25T01:53:59.468Z,9.20
2018-06-25T01:54:59.458Z,8.90
2018-06-25T01:55:59.432Z,8.00
2018-06-25T01:56:59.418Z,8.20
2018-06-25T01:57:59.401Z,8.50
2018-06-25T01:58:59.383Z,7.70
2018-06-25T01:59:59.366Z,8.20
2018-06-25T02:00:59.351Z,8.00
2018-06-25T02:01:59.333Z,8.50
2018-06-25T02:02:59.322Z,8.70
2018-06-25T02:03:59.298Z,8.50
2018-06-25T02:04:59.282Z,8.50
2018-06-25T02:05:59.264Z,8.40
2018-06-25T02:06:59.248Z,7.30
2018-06-25T02:07:59.231Z,8.10
2018-06-25T02:08:59.219Z,7.50
2018-06-25T02:09:59.197Z,8.40
2018-06-25T02:10:59.184Z,8.00
2018-06-25T02:11:59.164Z,8.40
2018-06-25T02:12:59.163Z,8.30
2018-06-25T02:13:59.133Z,7.50
2018-06-25T02:14:59.114Z,7.20
2018-06-25T02:15:59.100Z,7.10
2018-06-25T02:16:59.084Z,7.60
2018-06-25T02:17:59.064Z,7.10
2018-06-25T02:18:59.049Z,8.20
2018-06-25T02:19:59.030Z,7.20
2018-06-25T02:20:59.013Z,6.70
2018-06-25T02:21:58.995Z,7.40
2018-06-25T02:22:58.980Z,6.70
2018-06-25T02:23:58.967Z,7.20
2018-06-25T02:24:58.948Z,6.50
2018-06-25T02:25:58.957Z,6.40
2018-06-25T02:26:58.910Z,7.80
2018-06-25T02:27:58.904Z,7.00
2018-06-25T02:28:58.877Z,7.00
2018-06-25T02:29:58.869Z,6.90
2018-06-25T02:30:58.843Z,6.70
2018-06-25T02:31:58.826Z,7.00
2018-06-25T02:32:58.897Z,6.30
2018-06-25T02:33:58.794Z,6.60
2018-06-25T02:34:58.775Z,6.40
2018-06-25T02:35:58.761Z,6.90
2018-06-25T02:36:58.746Z,7.40
2018-06-25T02:37:58.729Z,7.20
2018-06-25T02:38:58.716Z,6.60
2018-06-25T02:39:58.699Z,6.70
2018-06-25T02:40:58.673Z,6.80
2018-06-25T02:41:58.657Z,7.00
2018-06-25T02:42:58.638Z,6.60
2018-06-25T02:43:58.639Z,7.00
2018-06-25T02:44:58.606Z,7.30
2018-06-25T02:45:58.589Z,8.10
2018-06-25T02:46:58.576Z,7.80
2018-06-25T02:47:58.554Z,7.50
2018-06-25T02:48:58.538Z,7.30
2018-06-25T02:49:58.528Z,7.40
2018-06-25T02:50:58.505Z,7.50
2018-06-25T02:51:58.489Z,6.90
2018-06-25T02:52:58.473Z,7.00
2018-06-25T02:53:58.456Z,7.80
2018-06-25T02:54:58.436Z,7.10
2018-06-25T02:55:58.420Z,6.90
2018-06-25T02:56:58.458Z,7.50
2018-06-25T02:57:58.387Z,7.60
2018-06-25T02:58:58.369Z,7.80
2018-06-25T02:59:58.353Z,7.30
2018-06-25T03:00:58.335Z,7.40
2018-06-25T03:01:58.320Z,7.50
2018-06-25T03:02:58.301Z,7.20
2018-06-25T03:03:58.288Z,7.40
2018-06-25T03:04:58.271Z,6.60
2018-06-25T03:05:58.268Z,7.40
2018-06-25T03:06:58.239Z,7.40
2018-06-25T03:07:58.218Z,7.40
2018-06-25T03:08:58.202Z,7.80
2018-06-25T03:09:58.186Z,8.00
2018-06-25T03:10:58.166Z,7.70
2018-06-25T03:11:58.151Z,8.00
2018-06-25T03:12:58.133Z,7.60
2018-06-25T03:13:58.118Z,7.20
2018-06-25T03:14:58.100Z,8.10
2018-06-25T03:15:58.084Z,6.90
2018-06-25T03:16:58.068Z,7.60
2018-06-25T03:17:58.058Z,7.40
2018-06-25T03:18:58.035Z,8.20
2018-06-25T03:19:58.015Z,8.20
2018-06-25T03:20:58.000Z,8.10
2018-06-25T03:21:57.985Z,8.60
2018-06-25T03:22:57.964Z,8.10
2018-06-25T03:23:57.951Z,8.50
2018-06-25T03:24:57.933Z,8.90
2018-06-25T03:25:57.916Z,8.60
2018-06-25T03:26:57.900Z,7.80
2018-06-25T03:27:57.882Z,8.50
2018-06-25T03:28:57.874Z,9.70
2018-06-25T03:29:57.851Z,7.90
2018-06-25T03:30:57.833Z,9.60
2018-06-25T03:31:57.819Z,8.40
2018-06-25T03:32:57.801Z,8.40
2018-06-25T03:33:57.784Z,7.80
2018-06-25T03:34:57.767Z,7.80
2018-06-25T03:35:57.803Z,7.70
2018-06-25T03:36:57.735Z,7.60
2018-06-25T03:37:57.726Z,7.90
2018-06-25T03:38:57.701Z,8.10
2018-06-25T03:39:57.682Z,7.70
2018-06-25T03:40:57.668Z,8.90
2018-06-25T03:41:57.654Z,7.00
2018-06-25T03:42:57.633Z,7.40
2018-06-25T03:43:57.616Z,7.70
2018-06-25T03:44:57.600Z,6.50
2018-06-25T03:45:57.585Z,7.00
2018-06-25T03:46:57.570Z,6.70
2018-06-25T03:47:57.550Z,6.70
2018-06-25T03:48:57.536Z,6.00
2018-06-25T03:49:57.517Z,6.70
2018-06-25T03:50:57.501Z,6.60
2018-06-25T03:51:57.484Z,6.70
2018-06-25T03:52:57.470Z,6.70
2018-06-25T03:53:57.452Z,6.10
2018-06-25T03:54:57.435Z,6.80
2018-06-25T03:55:57.418Z,6.00
2018-06-25T03:56:57.400Z,7.20
2018-06-25T03:57:57.383Z,6.40
2018-06-25T03:58:57.366Z,6.40
2018-06-25T03:59:57.352Z,5.80
2018-06-25T04:00:57.398Z,6.60
2018-06-25T04:01:57.320Z,5.80
2018-06-25T04:02:57.304Z,6.10
2018-06-25T04:03:57.287Z,7.40
2018-06-25T04:04:57.271Z,5.60
2018-06-25T04:05:57.257Z,5.90
2018-06-25T04:06:57.237Z,5.30
2018-06-25T04:07:57.222Z,5.40
2018-06-25T04:08:57.203Z,5.30
2018-06-25T04:09:57.194Z,5.40
2018-06-25T04:10:57.170Z,5.70
2018-06-25T04:11:57.153Z,5.60
2018-06-25T04:12:57.143Z,5.80
2018-06-25T04:13:57.124Z,6.00
2018-06-25T04:14:57.105Z,5.90
2018-06-25T04:15:57.089Z,5.70
2018-06-25T04:16:57.080Z,5.40
2018-06-25T04:17:57.059Z,6.10
2018-06-25T04:18:57.039Z,6.00
2018-06-25T04:19:57.024Z,5.50
2018-06-25T04:20:57.007Z,6.10
2018-06-25T04:21:56.992Z,6.30
2018-06-25T04:22:56.974Z,6.40
2018-06-25T04:23:56.958Z,6.00
2018-06-25T04:24:56.942Z,5.70
2018-06-25T04:25:56.926Z,6.20
2018-06-25T04:26:56.910Z,5.70
2018-06-25T04:27:56.893Z,6.50
2018-06-25T04:28:56.882Z,6.20
2018-06-25T04:29:56.862Z,6.00
2018-06-25T04:30:56.848Z,5.70
2018-06-25T04:31:56.828Z,6.00
2018-06-25T04:32:56.810Z,6.10
2018-06-25T04:33:56.797Z,6.90
2018-06-25T04:34:56.780Z,6.00
2018-06-25T04:35:56.765Z,6.10
2018-06-25T04:36:56.747Z,6.40
2018-06-25T04:37:56.756Z,6.80
2018-06-25T04:38:56.717Z,6.40
2018-06-25T04:39:56.701Z,6.30
2018-06-25T04:40:56.684Z,7.80
2018-06-25T04:41:56.667Z,7.30
2018-06-25T04:42:56.653Z,7.40
2018-06-25T04:43:56.639Z,7.30
2018-06-25T04:44:56.621Z,9.50
2018-06-25T04:45:56.606Z,9.10
2018-06-25T04:46:56.589Z,11.00
2018-06-25T04:47:56.573Z,10.80
2018-06-25T04:48:56.557Z,15.50
2018-06-25T04:49:56.542Z,16.40
2018-06-25T04:50:56.522Z,16.50
2018-06-25T04:51:56.508Z,16.90
2018-06-25T04:52:56.493Z,17.60
2018-06-25T04:53:56.478Z,17.20
2018-06-25T04:54:56.463Z,17.60
2018-06-25T04:55:56.444Z,17.50
2018-06-25T04:56:56.427Z,18.10
2018-06-25T04:57:56.411Z,16.60
2018-06-25T04:58:56.395Z,15.80
2018-06-25T04:59:56.380Z,17.00
2018-06-25T05:00:56.399Z,15.90
2018-06-25T05:01:56.349Z,16.60
2018-06-25T05:02:56.335Z,16.10
2018-06-25T05:03:56.317Z,16.80
2018-06-25T05:04:56.309Z,16.30
2018-06-25T05:05:56.285Z,16.70
2018-06-25T05:06:56.268Z,17.20
2018-06-25T05:07:56.251Z,17.60
2018-06-25T05:08:56.260Z,17.00
2018-06-25T05:09:56.224Z,16.10
2018-06-25T05:10:56.209Z,15.90
2018-06-25T05:11:56.187Z,16.10
2018-06-25T05:12:56.173Z,16.80
2018-06-25T05:13:56.158Z,17.40
2018-06-25T05:14:56.140Z,17.90
2018-06-25T05:15:56.126Z,16.50
2018-06-25T05:16:56.111Z,15.60
2018-06-25T05:17:56.095Z,13.10
2018-06-25T05:18:56.076Z,12.30
2018-06-25T05:19:56.061Z,11.50
2018-06-25T05:20:56.047Z,10.60
2018-06-25T05:21:56.031Z,9.10
2018-06-25T05:22:56.021Z,8.00
2018-06-25T05:23:55.999Z,7.80
2018-06-25T05:24:55.984Z,7.10
2018-06-25T05:25:55.972Z,7.10
2018-06-25T05:26:55.953Z,6.90
2018-06-25T05:27:55.939Z,6.30
2018-06-25T05:28:55.919Z,6.60
2018-06-25T05:29:55.910Z,6.80
2018-06-25T05:30:55.888Z,6.50
2018-06-25T05:31:55.874Z,6.00
2018-06-25T05:32:55.860Z,6.60
2018-06-25T05:33:55.843Z,6.60
2018-06-25T05:34:55.827Z,7.00
2018-06-25T05:35:55.816Z,6.70
2018-06-25T05:36:55.798Z,6.40
2018-06-25T05:37:55.784Z,6.60
2018-06-25T05:38:55.770Z,7.10
2018-06-25T05:39:55.749Z,7.00
2018-06-25T05:40:55.741Z,6.50
2018-06-25T05:41:55.720Z,6.30
2018-06-25T05:42:55.707Z,6.70
2018-06-25T05:43:55.691Z,6.90
2018-06-25T05:44:55.677Z,7.20
2018-06-25T05:45:55.664Z,7.30
2018-06-25T05:46:55.647Z,8.20
2018-06-25T05:47:55.633Z,8.60
2018-06-25T05:48:55.677Z,8.90
2018-06-25T05:49:55.599Z,8.90
2018-06-25T05:50:55.593Z,11.00
2018-06-25T05:51:55.568Z,10.20
2018-06-25T05:52:55.555Z,11.50
2018-06-25T05:53:55.539Z,11.30
2018-06-25T05:54:55.522Z,12.70
2018-06-25T05:55:55.509Z,14.40
2018-06-25T05:56:55.493Z,14.70
2018-06-25T05:57:55.478Z,13.40
2018-06-25T05:58:55.503Z,14.10
2018-06-25T05:59:55.448Z,13.50
2018-06-25T06:00:55.433Z,13.00
2018-06-25T06:01:55.419Z,12.70
2018-06-25T06:02:55.403Z,14.40
2018-06-25T06:03:55.395Z,14.60
2018-06-25T06:04:55.371Z,12.10
2018-06-25T06:05:55.358Z,12.30
2018-06-25T06:06:55.343Z,13.60
2018-06-25T06:07:55.326Z,12.20
2018-06-25T06:08:55.313Z,11.50
2018-06-25T06:09:55.300Z,11.80
2018-06-25T06:10:55.282Z,9.90
2018-06-25T06:11:55.269Z,9.00
2018-06-25T06:12:55.256Z,10.40
2018-06-25T06:13:55.250Z,9.90
2018-06-25T06:14:55.235Z,8.50
2018-06-25T06:15:55.208Z,8.60
2018-06-25T06:16:55.199Z,11.00
2018-06-25T06:17:55.180Z,11.90
2018-06-25T06:18:55.162Z,11.20
2018-06-25T06:19:55.150Z,12.50
2018-06-25T06:20:55.135Z,13.20
2018-06-25T06:21:55.120Z,13.80
2018-06-25T06:22:55.102Z,13.50
2018-06-25T06:23:55.091Z,12.70
2018-06-25T06:24:55.076Z,12.90
2018-06-25T06:25:55.068Z,14.00
2018-06-25T06:26:55.045Z,12.20
2018-06-25T06:27:55.030Z,13.50
2018-06-25T06:28:55.014Z,12.20
2018-06-25T06:29:55.001Z,13.60
2018-06-25T06:30:54.990Z,12.90
2018-06-25T06:31:54.969Z,12.70
2018-06-25T06:32:54.958Z,13.00
2018-06-25T06:33:54.943Z,13.00
2018-06-25T06:34:54.927Z,13.10
2018-06-25T06:35:54.911Z,12.70
2018-06-25T06:36:54.897Z,12.30
2018-06-25T06:37:54.882Z,12.60
2018-06-25T06:38:54.867Z,11.80
2018-06-25T06:39:54.900Z,12.10
2018-06-25T06:40:54.842Z,10.80
2018-06-25T06:41:54.824Z,10.70
2018-06-25T06:42:54.810Z,9.30
2018-06-25T06:43:54.797Z,9.20
2018-06-25T06:44:54.840Z,12.00
2018-06-25T06:45:54.767Z,12.70
2018-06-25T06:46:54.754Z,12.10
2018-06-25T06:47:54.740Z,13.40
2018-06-25T06:48:54.728Z,13.80
2018-06-25T06:49:54.709Z,13.50
2018-06-25T06:50:54.693Z,13.60
2018-06-25T06:51:54.679Z,12.10
2018-06-25T06:52:54.669Z,12.50
2018-06-25T06:53:54.651Z,11.10
2018-06-25T06:54:54.639Z,11.80
2018-06-25T06:55:54.623Z,12.30
2018-06-25T06:56:54.607Z,12.20
2018-06-25T06:57:54.595Z,11.70
2018-06-25T06:58:54.591Z,11.30
2018-06-25T06:59:54.567Z,11.50
2018-06-25T07:00:54.549Z,12.30
2018-06-25T07:01:54.538Z,11.50
2018-06-25T07:02:54.521Z,11.60
2018-06-25T07:03:54.509Z,10.60
2018-06-25T07:04:54.493Z,9.90
2018-06-25T07:05:54.478Z,11.60
2018-06-25T07:06:54.464Z,10.30
2018-06-25T07:07:54.449Z,11.70
2018-06-25T07:08:54.435Z,9.90
2018-06-25T07:09:54.421Z,10.20
2018-06-25T07:10:54.415Z,9.60
2018-06-25T07:11:54.394Z,9.10
2018-06-25T07:12:54.376Z,7.70
2018-06-25T07:13:54.366Z,8.50
2018-06-25T07:14:54.347Z,8.20
2018-06-25T07:15:54.341Z,9.00
2018-06-25T07:16:54.321Z,8.80
2018-06-25T07:17:54.309Z,8.30
2018-06-25T07:18:54.293Z,9.80
2018-06-25T07:19:54.281Z,9.60
2018-06-25T07:20:54.268Z,10.30
2018-06-25T07:21:54.254Z,9.50
2018-06-25T07:22:54.238Z,8.40
2018-06-25T07:23:54.223Z,7.80
2018-06-25T07:24:54.230Z,7.30
2018-06-25T07:25:54.197Z,8.80
2018-06-25T07:26:54.182Z,6.20
2018-06-25T07:27:54.168Z,6.80
2018-06-25T07:28:54.188Z,8.30
2018-06-25T07:29:54.142Z,6.70
2018-06-25T07:30:54.126Z,6.40
2018-06-25T07:31:54.114Z,6.40
2018-06-25T07:32:54.101Z,6.80
2018-06-25T07:33:54.085Z,6.90
2018-06-25T07:34:54.072Z,7.60
2018-06-25T07:35:54.069Z,6.30
2018-06-25T07:36:54.046Z,6.80
2018-06-25T07:37:54.038Z,7.30
2018-06-25T07:38:54.018Z,7.30
2018-06-25T07:39:54.003Z,8.30
2018-06-25T07:40:53.996Z,7.00
2018-06-25T07:41:53.983Z,6.90
2018-06-25T07:42:53.968Z,7.10
2018-06-25T07:43:53.954Z,7.30
2018-06-25T07:44:53.942Z,8.10
2018-06-25T07:45:53.929Z,7.40
2018-06-25T07:46:53.916Z,8.30
2018-06-25T07:47:53.901Z,8.10
2018-06-25T07:48:53.893Z,7.80
2018-06-25T07:49:53.874Z,8.60
2018-06-25T07:50:53.864Z,8.40
2018-06-25T07:51:53.846Z,8.60
2018-06-25T07:52:53.840Z,9.30
2018-06-25T07:53:53.824Z,10.50
2018-06-25T07:54:53.828Z,10.70
2018-06-25T07:55:53.793Z,10.20
2018-06-25T07:56:53.789Z,10.90
2018-06-25T07:57:53.768Z,9.60
2018-06-25T07:58:53.754Z,8.70
2018-06-25T07:59:53.741Z,8.50
2018-06-25T08:00:53.729Z,8.10
2018-06-25T08:01:53.716Z,7.80
2018-06-25T08:02:53.711Z,7.70
2018-06-25T08:03:53.690Z,7.80
2018-06-25T08:04:53.677Z,7.90
2018-06-25T08:05:53.665Z,7.90
2018-06-25T08:06:53.667Z,7.50
2018-06-25T08:07:53.639Z,7.10
2018-06-25T08:08:53.625Z,8.90
2018-06-25T08:09:53.670Z,10.80
2018-06-25T08:10:53.598Z,9.40
2018-06-25T08:11:53.585Z,10.20
2018-06-25T08:12:53.583Z,10.20
2018-06-25T08:13:53.559Z,9.80
2018-06-25T08:14:53.543Z,10.00
2018-06-25T08:15:53.539Z,9.50
2018-06-25T08:16:53.518Z,10.00
2018-06-25T08:17:53.508Z,8.90
2018-06-25T08:18:53.491Z,9.60
2018-06-25T08:19:53.477Z,9.20
2018-06-25T08:20:53.464Z,8.40
2018-06-25T08:21:53.454Z,9.20
2018-06-25T08:22:53.439Z,9.40
2018-06-25T08:23:53.424Z,9.30
2018-06-25T08:24:53.410Z,9.20
2018-06-25T08:25:53.398Z,8.40
2018-06-25T08:26:53.386Z,9.20
2018-06-25T08:27:53.370Z,9.00
2018-06-25T08:28:53.361Z,10.10
2018-06-25T08:29:53.375Z,9.90
2018-06-25T08:30:53.332Z,9.80
2018-06-25T08:31:53.322Z,9.40
2018-06-25T08:32:53.304Z,10.80
2018-06-25T08:33:53.320Z,10.60
2018-06-25T08:34:53.275Z,10.90
2018-06-25T08:35:53.270Z,10.30
2018-06-25T08:36:53.275Z,10.90
2018-06-25T08:37:53.237Z,10.90
2018-06-25T08:38:53.227Z,10.80
2018-06-25T08:39:53.208Z,11.80
2018-06-25T08:40:53.196Z,11.50
2018-06-25T08:41:53.184Z,10.40
2018-06-25T08:42:53.169Z,10.30
2018-06-25T08:43:53.154Z,11.60
2018-06-25T08:44:53.141Z,10.80
2018-06-25T08:45:53.133Z,10.40
2018-06-25T08:46:53.113Z,10.20
2018-06-25T08:47:53.104Z,10.70
2018-06-25T08:48:53.089Z,11.00
2018-06-25T08:49:53.076Z,10.40
2018-06-25T08:50:53.064Z,10.80
2018-06-25T08:51:53.101Z,10.10
2018-06-25T08:52:53.041Z,10.40
2018-06-25T08:53:53.028Z,11.10
2018-06-25T08:54:53.007Z,9.40
2018-06-25T08:55:52.993Z,10.20
2018-06-25T08:56:53.028Z,9.50
2018-06-25T08:57:52.967Z,9.30
2018-06-25T08:58:52.955Z,9.20
2018-06-25T08:59:52.948Z,9.10
2018-06-25T09:00:52.925Z,8.90
2018-06-25T09:01:52.913Z,9.50
2018-06-25T09:02:52.899Z,8.80
2018-06-25T09:03:52.886Z,9.60
2018-06-25T09:04:52.915Z,8.80
2018-06-25T09:05:52.861Z,9.40
2018-06-25T09:06:52.847Z,8.70
2018-06-25T09:07:52.833Z,8.50
2018-06-25T09:08:52.821Z,8.70
2018-06-25T09:09:52.843Z,8.80
2018-06-25T09:10:52.794Z,8.20
2018-06-25T09:11:52.782Z,8.20
2018-06-25T09:12:52.769Z,8.00
2018-06-25T09:13:52.755Z,7.20
2018-06-25T09:14:52.744Z,7.30
2018-06-25T09:15:52.730Z,6.40
2018-06-25T09:16:52.717Z,7.70
2018-06-25T09:17:52.707Z,6.80
2018-06-25T09:18:52.694Z,6.10
2018-06-25T09:19:52.678Z,8.30
2018-06-25T09:20:52.667Z,6.60
2018-06-25T09:21:52.654Z,7.50
2018-06-25T09:22:52.641Z,6.60
2018-06-25T09:23:52.627Z,7.90
2018-06-25T09:24:52.613Z,9.60
2018-06-25T09:25:52.602Z,7.00
2018-06-25T09:26:52.591Z,5.90
2018-06-25T09:27:52.611Z,6.80
2018-06-25T09:28:52.567Z,5.30
2018-06-25T09:29:52.558Z,5.10
2018-06-25T09:30:52.545Z,5.20
2018-06-25T09:31:52.536Z,5.50
2018-06-25T09:32:52.522Z,5.60
2018-06-25T09:33:52.512Z,4.30
2018-06-25T09:34:52.503Z,5.60
2018-06-25T09:35:52.492Z,3.70
2018-06-25T09:36:52.483Z,5.10
2018-06-25T09:37:52.481Z,4.80
2018-06-25T09:38:52.461Z,4.80
2018-06-25T09:39:52.453Z,5.10
2018-06-25T09:40:52.526Z,4.70
2018-06-25T09:41:52.436Z,6.90
2018-06-25T09:42:52.475Z,4.80
2018-06-25T09:43:52.416Z,6.10
2018-06-25T09:44:52.406Z,4.00
2018-06-25T09:45:52.456Z,4.60
2018-06-25T09:46:52.406Z,4.00
2018-06-25T09:47:52.377Z,3.70
2018-06-25T09:48:52.371Z,4.00
2018-06-25T09:49:52.359Z,4.30
2018-06-25T09:50:52.350Z,3.60
2018-06-25T09:51:52.342Z,3.80
2018-06-25T09:52:52.332Z,4.80
2018-06-25T09:53:52.324Z,3.70
2018-06-25T09:54:52.378Z,4.50
2018-06-25T09:55:52.307Z,5.10
2018-06-25T09:56:52.298Z,4.60
2018-06-25T09:57:52.293Z,3.30
2018-06-25T09:58:52.282Z,4.20
2018-06-25T09:59:52.274Z,3.20
2018-06-25T10:00:52.268Z,3.40
2018-06-25T10:01:52.260Z,4.00
2018-06-25T10:02:52.252Z,6.30
2018-06-25T10:03:52.243Z,4.40
2018-06-25T10:04:52.236Z,4.10
2018-06-25T10:05:52.230Z,4.30
2018-06-25T10:06:52.266Z,5.10
2018-06-25T10:07:52.210Z,3.70
2018-06-25T10:08:52.204Z,3.10
2018-06-25T10:09:52.197Z,4.00
2018-06-25T10:10:52.196Z,3.60
2018-06-25T10:11:52.184Z,3.30
2018-06-25T10:12:52.176Z,4.40
2018-06-25T10:13:52.176Z,5.40
2018-06-25T10:14:52.160Z,4.20
2018-06-25T10:15:52.155Z,3.90
2018-06-25T10:16:52.150Z,4.20
2018-06-25T10:17:52.142Z,3.80
2018-06-25T10:18:52.141Z,4.30
2018-06-25T10:19:52.131Z,4.00
2018-06-25T10:20:52.125Z,3.10
2018-06-25T10:21:52.120Z,3.80
2018-06-25T10:22:52.148Z,4.30
2018-06-25T10:23:52.107Z,3.70
2018-06-25T10:24:52.104Z,8.40
2018-06-25T10:25:52.098Z,4.20
2018-06-25T10:26:52.090Z,5.10
2018-06-25T10:27:52.084Z,5.00
2018-06-25T10:28:52.078Z,5.40
2018-06-25T10:29:52.073Z,4.70
2018-06-25T10:30:52.068Z,5.00
2018-06-25T10:31:52.066Z,4.60
2018-06-25T10:32:52.060Z,3.90
2018-06-25T10:33:52.057Z,2.60
2018-06-25T10:34:52.115Z,3.30
2018-06-25T10:35:52.048Z,2.90
2018-06-25T10:36:52.042Z,4.20
2018-06-25T10:37:52.042Z,6.40
2018-06-25T10:38:52.041Z,5.20
2018-06-25T10:39:52.029Z,4.80
2018-06-25T10:40:52.033Z,3.20
2018-06-25T10:41:52.024Z,4.10
2018-06-25T10:42:52.016Z,4.80
2018-06-25T10:43:52.011Z,5.30
2018-06-25T10:44:52.010Z,3.80
2018-06-25T10:45:52.003Z,3.20
2018-06-25T10:46:52.000Z,3.60
2018-06-25T10:47:51.996Z,3.70
2018-06-25T10:48:51.989Z,2.50
2018-06-25T10:49:51.992Z,3.90
2018-06-25T10:50:51.982Z,3.60
2018-06-25T10:51:51.978Z,3.40
2018-06-25T10:52:51.975Z,3.70
2018-06-25T10:53:51.976Z,4.40
2018-06-25T10:54:51.971Z,3.30
2018-06-25T10:55:51.965Z,2.90
2018-06-25T10:56:51.966Z,4.20
2018-06-25T10:57:51.964Z,2.60
2018-06-25T10:58:51.958Z,3.00
2018-06-25T10:59:52.122Z,4.70
2018-06-25T11:00:51.949Z,3.20
2018-06-25T11:01:51.947Z,4.80
2018-06-25T11:02:51.946Z,3.30
2018-06-25T11:03:51.947Z,3.30
2018-06-25T11:04:51.935Z,4.00
2018-06-25T11:05:51.979Z,4.00
2018-06-25T11:06:51.942Z,4.10
2018-06-25T11:07:52.000Z,3.80
2018-06-25T11:08:51.924Z,3.00
2018-06-25T11:09:51.921Z,4.90
2018-06-25T11:10:51.915Z,4.10
2018-06-25T11:11:51.914Z,4.20
2018-06-25T11:12:52.010Z,3.20
2018-06-25T11:13:51.910Z,5.20
2018-06-25T11:14:51.906Z,3.70
2018-06-25T11:15:51.905Z,5.30
2018-06-25T11:16:51.896Z,4.60
2018-06-25T11:17:51.893Z,3.20
2018-06-25T11:18:51.886Z,4.00
2018-06-25T11:19:51.886Z,3.30
2018-06-25T11:20:51.884Z,3.90
2018-06-25T11:21:51.877Z,3.00
2018-06-25T11:22:51.873Z,2.70
2018-06-25T11:23:51.867Z,3.00
2018-06-25T11:24:51.866Z,3.40
2018-06-25T11:25:51.864Z,3.30
2018-06-25T11:26:51.908Z,3.50
2018-06-25T11:27:51.952Z,4.00
2018-06-25T11:28:51.851Z,9.80
2018-06-25T11:29:51.846Z,3.10
2018-06-25T11:30:51.842Z,4.10
2018-06-25T11:31:51.841Z,4.20
2018-06-25T11:32:51.837Z,3.70
2018-06-25T11:33:51.832Z,4.20
2018-06-25T11:34:51.832Z,6.70
2018-06-25T11:35:51.826Z,6.00
2018-06-25T11:36:51.829Z,4.80
2018-06-25T11:37:51.830Z,5.00
2018-06-25T11:38:51.819Z,2.40
2018-06-25T11:39:51.816Z,4.10
2018-06-25T11:40:51.828Z,5.60
2018-06-25T11:41:51.897Z,2.60
2018-06-25T11:42:51.816Z,5.40
2018-06-25T11:43:51.812Z,4.30
2018-06-25T11:44:51.813Z,3.70
2018-06-25T11:45:51.806Z,4.70
2018-06-25T11:46:51.803Z,3.10
2018-06-25T11:47:51.803Z,4.10
2018-06-25T11:48:51.804Z,3.10
2018-06-25T11:49:51.803Z,2.30
2018-06-25T11:50:51.800Z,2.20
2018-06-25T11:51:51.800Z,3.10
2018-06-25T11:52:51.804Z,4.10
2018-06-25T11:53:51.796Z,5.40
2018-06-25T11:54:51.792Z,4.00
2018-06-25T11:55:51.789Z,2.20
2018-06-25T11:56:51.786Z,3.00
2018-06-25T11:57:51.785Z,3.60
2018-06-25T11:58:51.785Z,2.50
2018-06-25T11:59:51.781Z,3.10
2018-06-25T12:00:51.781Z,3.40
2018-06-25T12:01:51.781Z,3.90
2018-06-25T12:02:51.847Z,3.80
2018-06-25T12:03:51.778Z,4.30
2018-06-25T12:04:51.768Z,2.90
2018-06-25T12:05:51.766Z,3.80
2018-06-25T12:06:51.765Z,3.10
2018-06-25T12:07:51.765Z,2.80
2018-06-25T12:08:51.759Z,2.80
2018-06-25T12:09:51.756Z,2.70
2018-06-25T12:10:51.758Z,3.30
2018-06-25T12:11:51.763Z,4.60
2018-06-25T12:12:51.747Z,3.80
2018-06-25T12:13:51.746Z,3.90
2018-06-25T12:14:51.743Z,3.60
2018-06-25T12:15:51.740Z,4.60
2018-06-25T12:16:51.737Z,4.40
2018-06-25T12:17:51.736Z,3.20
2018-06-25T12:18:51.733Z,2.20
2018-06-25T12:19:51.846Z,6.10
2018-06-25T12:20:51.725Z,4.00
2018-06-25T12:21:51.722Z,3.10
2018-06-25T12:22:51.721Z,3.20
2018-06-25T12:23:51.718Z,2.50
2018-06-25T12:24:51.721Z,3.60
2018-06-25T12:25:51.713Z,4.80
2018-06-25T12:26:51.711Z,4.20
2018-06-25T12:27:51.759Z,5.30
2018-06-25T12:28:51.704Z,4.50
2018-06-25T12:29:51.699Z,4.70
2018-06-25T12:30:51.696Z,3.40
2018-06-25T12:31:51.702Z,8.90
2018-06-25T12:32:51.689Z,11.00
2018-06-25T12:33:51.686Z,7.50
2018-06-25T12:34:51.683Z,10.60
2018-06-25T12:35:51.683Z,4.90
2018-06-25T12:36:51.677Z,9.00
2018-06-25T12:37:51.751Z,8.60
2018-06-25T12:38:51.671Z,3.10
2018-06-25T12:39:51.679Z,4.30
2018-06-25T12:40:51.664Z,3.30
2018-06-25T12:41:51.664Z,3.80
2018-06-25T12:42:51.657Z,4.00
2018-06-25T12:43:51.658Z,3.30
2018-06-25T12:44:51.658Z,4.90
2018-06-25T12:45:51.644Z,6.00
2018-06-25T12:46:51.640Z,2.70
2018-06-25T12:47:51.639Z,4.40
2018-06-25T12:48:51.644Z,3.90
2018-06-25T12:49:51.631Z,3.20
2018-06-25T12:50:51.628Z,5.00
2018-06-25T12:51:51.623Z,3.10
2018-06-25T12:52:51.619Z,2.70
2018-06-25T12:53:51.632Z,4.70
2018-06-25T12:54:51.612Z,5.00
2018-06-25T12:55:51.607Z,3.00
2018-06-25T12:56:51.600Z,4.00
2018-06-25T12:57:51.597Z,6.10
2018-06-25T12:58:51.600Z,5.30
2018-06-25T12:59:51.591Z,5.20
2018-06-25T13:00:51.582Z,2.70
2018-06-25T13:01:51.578Z,5.80
2018-06-25T13:02:51.578Z,5.10
2018-06-25T13:03:51.567Z,3.20
2018-06-25T13:04:51.563Z,5.80
2018-06-25T13:05:51.562Z,5.30
2018-06-25T13:06:51.558Z,4.50
2018-06-25T13:07:51.552Z,3.90
2018-06-25T13:08:51.546Z,3.00
2018-06-25T13:09:51.545Z,6.00
2018-06-25T13:10:51.767Z,3.20
2018-06-25T13:11:51.530Z,3.20
2018-06-25T13:12:52.228Z,3.30